Time;durP1;ratioP1;P1;durP2;ratioP2;P2;SDS_P1;SDS_P2;PMS_P1;PMS_P2;Temp;Humidity;BMP_temperature;BMP_pressure;BME280_temperature;BME280_humidity;BME280_pressure;Samples;Min_cycle;Max_cycle;Signal;HPM_P1;HPM_P2
2022/09/21 00:02:00;;;;;;;;;;;20.20;55.60;;;;;;5016120;28;19913;-73
2022/09/21 00:04:26;;;;;;;;;;;20.20;55.40;;;;;;5018184;28;20023;-72
2022/09/21 00:06:51;;;;;;;;;;;20.20;55.40;;;;;;5023240;28;20017;-72
2022/09/21 00:09:17;;;;;;;;;;;20.20;55.40;;;;;;5015187;28;19921;-72
2022/09/21 00:11:42;;;;;;;;;;;20.20;55.40;;;;;;5008137;28;19930;-72
2022/09/21 00:14:09;;;;;;;;;;;20.20;55.30;;;;;;5022245;28;19975;-72
2022/09/21 00:16:35;;;;;;;;;;;20.20;55.20;;;;;;5016999;28;20012;-73
2022/09/21 00:19:00;;;;;;;;;;;20.20;55.30;;;;;;5020064;28;20004;-73
2022/09/21 00:21:27;;;;;;;;;;;20.20;55.20;;;;;;5020455;28;19941;-71
2022/09/21 00:23:53;;;;;;;;;;;20.20;55.40;;;;;;5000959;28;19932;-73
2022/09/21 00:26:19;;;;;;;;;;;20.20;55.40;;;;;;5011501;28;20013;-73
2022/09/21 00:28:44;;;;;;;;;;;20.10;55.40;;;;;;5018998;28;19917;-72
2022/09/21 00:31:11;;;;;;;;;;;20.10;55.50;;;;;;5012566;28;19921;-71
2022/09/21 00:33:37;;;;;;;;;;;20.10;55.40;;;;;;5009698;28;19917;-72
2022/09/21 00:36:06;;;;;;;;;;;20.10;55.40;;;;;;5013668;28;19918;-72
2022/09/21 00:38:32;;;;;;;;;;;20.10;55.40;;;;;;5021181;28;19922;-72
2022/09/21 00:40:57;;;;;;;;;;;20.10;55.50;;;;;;5014678;28;19971;-73
2022/09/21 00:43:23;;;;;;;;;;;20.10;55.50;;;;;;5016084;28;19921;-71
2022/09/21 00:45:48;;;;;;;;;;;20.10;55.50;;;;;;5001940;28;19920;-71
2022/09/21 00:48:14;;;;;;;;;;;20.10;55.50;;;;;;5001907;28;19967;-72
2022/09/21 00:50:41;;;;;;;;;;;20.10;55.50;;;;;;5019281;28;20447;-73
2022/09/21 00:53:06;;;;;;;;;;;20.10;55.50;;;;;;5020576;28;20399;-73
2022/09/21 00:55:33;;;;;;;;;;;20.10;55.40;;;;;;4999569;28;19917;-73
2022/09/21 00:57:59;;;;;;;;;;;20.10;55.50;;;;;;5004688;28;20012;-72
2022/09/21 01:00:25;;;;;;;;;;;20.00;55.50;;;;;;5008257;28;19924;-73
2022/09/21 01:02:50;;;;;;;;;;;20.10;56.20;;;;;;5019060;28;19917;-72
2022/09/21 01:05:16;;;;;;;;;;;20.00;55.40;;;;;;5020590;28;19924;-73
2022/09/21 01:07:45;;;;;;;;;;;20.00;55.60;;;;;;5020304;28;19924;-72
2022/09/21 01:10:11;;;;;;;;;;;20.00;55.60;;;;;;5021985;28;20000;-72
2022/09/21 01:12:55;;;;;;;;;;;20.00;55.60;;;;;;5016152;28;20027;-72
2022/09/21 01:15:21;;;;;;;;;;;20.00;55.60;;;;;;5011415;28;19922;-72
2022/09/21 01:17:52;;;;;;;;;;;20.00;55.60;;;;;;5015781;28;19917;-72
2022/09/21 01:20:47;;;;;;;;;;;20.00;55.50;;;;;;5019315;28;19913;-73
2022/09/21 01:23:21;;;;;;;;;;;20.00;55.60;;;;;;4990963;28;19928;-71
2022/09/21 01:25:53;;;;;;;;;;;20.00;55.50;;;;;;5018603;28;19918;-71
2022/09/21 01:28:24;;;;;;;;;;;19.90;55.60;;;;;;5020231;28;19932;-72
2022/09/21 01:30:49;;;;;;;;;;;19.90;55.70;;;;;;5007262;28;19929;-72
2022/09/21 01:33:22;;;;;;;;;;;19.90;55.70;;;;;;5019752;28;20015;-72
2022/09/21 01:35:48;;;;;;;;;;;19.90;55.70;;;;;;5016865;28;19920;-73
2022/09/21 01:38:21;;;;;;;;;;;19.90;55.50;;;;;;5020516;28;19917;-72
2022/09/21 01:40:49;;;;;;;;;;;19.90;55.60;;;;;;5003904;28;19913;-72
2022/09/21 01:43:22;;;;;;;;;;;19.80;55.70;;;;;;5018254;28;19970;-72
2022/09/21 01:45:48;;;;;;;;;;;19.80;55.60;;;;;;5009165;28;20301;-72
2022/09/21 01:48:14;;;;;;;;;;;19.80;55.80;;;;;;5020183;28;19928;-72
2022/09/21 01:50:40;;;;;;;;;;;19.80;55.80;;;;;;5018648;28;19922;-72
2022/09/21 01:53:10;;;;;;;;;;;19.80;55.80;;;;;;5017697;28;20603;-72
2022/09/21 01:55:39;;;;;;;;;;;19.70;55.80;;;;;;5018136;28;19956;-72
2022/09/21 01:58:13;;;;;;;;;;;19.80;55.80;;;;;;5021183;28;19920;-72
2022/09/21 02:00:39;;;;;;;;;;;19.80;55.80;;;;;;5017995;28;20007;-71
2022/09/21 02:03:07;;;;;;;;;;;19.80;55.60;;;;;;5003035;28;20031;-72
2022/09/21 02:05:33;;;;;;;;;;;19.80;55.50;;;;;;5019432;28;19925;-70
2022/09/21 02:07:58;;;;;;;;;;;19.80;55.70;;;;;;5019830;28;20328;-72
2022/09/21 02:10:34;;;;;;;;;;;19.80;55.70;;;;;;5000011;28;19920;-71
2022/09/21 02:13:00;;;;;;;;;;;19.80;55.70;;;;;;5019927;28;19913;-72
2022/09/21 02:15:30;;;;;;;;;;;19.80;55.70;;;;;;5021746;28;20312;-72
2022/09/21 02:18:05;;;;;;;;;;;19.80;55.70;;;;;;5008308;28;19917;-72
2022/09/21 02:20:31;;;;;;;;;;;19.70;55.70;;;;;;5019189;28;19917;-71
2022/09/21 02:23:12;;;;;;;;;;;19.70;55.70;;;;;;5000452;28;19924;-72
2022/09/21 02:26:05;;;;;;;;;;;19.70;55.80;;;;;;5019129;28;19921;-72
2022/09/21 02:28:43;;;;;;;;;;;19.70;55.70;;;;;;5012837;28;19944;-72
2022/09/21 02:31:12;;;;;;;;;;;19.70;55.70;;;;;;5017494;28;19943;-72
2022/09/21 02:33:43;;;;;;;;;;;19.70;55.60;;;;;;5010389;28;19919;-72
2022/09/21 02:36:35;;;;;;;;;;;19.70;55.70;;;;;;5005262;28;19920;-72
2022/09/21 02:39:05;;;;;;;;;;;19.70;55.80;;;;;;5011592;28;19917;-72
2022/09/21 02:41:44;;;;;;;;;;;19.60;55.80;;;;;;5000435;28;20404;-71
2022/09/21 02:44:11;;;;;;;;;;;19.60;55.80;;;;;;5014532;28;19921;-72
2022/09/21 02:46:40;;;;;;;;;;;19.60;55.90;;;;;;5015411;28;20310;-72
2022/09/21 02:49:08;;;;;;;;;;;19.60;55.90;;;;;;5013991;28;19921;-72
2022/09/21 02:51:46;;;;;;;;;;;19.60;55.80;;;;;;5004869;28;19976;-71
2022/09/21 02:54:13;;;;;;;;;;;19.60;55.80;;;;;;4996379;28;19913;-72
2022/09/21 02:56:40;;;;;;;;;;;19.60;55.90;;;;;;4998582;28;19970;-71
2022/09/21 02:59:05;;;;;;;;;;;19.50;55.80;;;;;;4999396;28;19918;-72
2022/09/21 03:01:31;;;;;;;;;;;19.60;55.80;;;;;;5015626;28;19924;-72
2022/09/21 03:03:56;;;;;;;;;;;19.60;55.60;;;;;;5004576;28;19917;-73
2022/09/21 03:06:22;;;;;;;;;;;19.60;55.60;;;;;;5002254;28;19919;-72
2022/09/21 03:08:47;;;;;;;;;;;19.70;55.60;;;;;;5014719;28;20057;-72
2022/09/21 03:11:15;;;;;;;;;;;19.60;55.60;;;;;;5010032;28;21298;-71
2022/09/21 03:13:41;;;;;;;;;;;19.60;55.60;;;;;;4995740;28;19917;-72
2022/09/21 03:16:07;;;;;;;;;;;19.60;55.50;;;;;;5011611;28;19921;-72
2022/09/21 03:18:32;;;;;;;;;;;19.60;55.50;;;;;;5014332;28;19965;-71
2022/09/21 03:20:58;;;;;;;;;;;19.60;55.80;;;;;;5001163;28;19913;-72
2022/09/21 03:23:23;;;;;;;;;;;19.70;55.50;;;;;;5008333;28;20043;-73
2022/09/21 03:25:51;;;;;;;;;;;19.70;55.40;;;;;;5016497;28;19914;-72
2022/09/21 03:28:16;;;;;;;;;;;19.70;55.50;;;;;;5014792;28;19982;-73
2022/09/21 03:30:42;;;;;;;;;;;19.60;55.40;;;;;;5019077;28;19921;-71
2022/09/21 03:33:07;;;;;;;;;;;19.70;55.40;;;;;;4997186;28;19913;-73
2022/09/21 03:35:33;;;;;;;;;;;19.70;55.40;;;;;;5002920;28;19929;-72
2022/09/21 03:37:58;;;;;;;;;;;19.60;55.50;;;;;;4989987;28;19913;-73
2022/09/21 03:40:25;;;;;;;;;;;19.60;55.50;;;;;;5014169;28;20363;-72
2022/09/21 03:42:50;;;;;;;;;;;19.70;55.40;;;;;;5012808;28;20313;-71
2022/09/21 03:45:16;;;;;;;;;;;19.70;55.30;;;;;;5015145;28;19924;-72
2022/09/21 03:47:41;;;;;;;;;;;19.60;55.40;;;;;;5015800;28;20019;-72
2022/09/21 03:50:07;;;;;;;;;;;19.60;55.30;;;;;;5011393;28;20002;-71
2022/09/21 03:52:33;;;;;;;;;;;19.60;55.50;;;;;;5012951;28;19928;-72
2022/09/21 03:54:58;;;;;;;;;;;19.60;55.30;;;;;;5003724;28;19952;-73
2022/09/21 03:57:23;;;;;;;;;;;19.60;55.30;;;;;;5013930;28;19921;-73
2022/09/21 03:59:49;;;;;;;;;;;19.60;55.30;;;;;;5013314;28;20011;-72
2022/09/21 04:02:15;;;;;;;;;;;19.60;55.30;;;;;;5011503;28;20679;-72
2022/09/21 04:04:40;;;;;;;;;;;19.60;55.30;;;;;;4999224;28;20343;-73
2022/09/21 04:07:06;;;;;;;;;;;19.60;55.20;;;;;;5017974;28;19984;-72
2022/09/21 04:09:31;;;;;;;;;;;19.60;55.30;;;;;;5003602;28;19960;-73
2022/09/21 04:11:56;;;;;;;;;;;19.60;55.20;;;;;;5000160;28;19929;-72
2022/09/21 04:14:22;;;;;;;;;;;19.60;55.10;;;;;;5018035;28;19922;-73
2022/09/21 04:16:48;;;;;;;;;;;19.70;55.10;;;;;;5017835;28;20353;-71
2022/09/21 04:19:14;;;;;;;;;;;19.60;55.00;;;;;;5001739;28;19917;-71
2022/09/21 04:21:39;;;;;;;;;;;19.60;55.00;;;;;;5020262;28;19920;-71
2022/09/21 04:24:05;;;;;;;;;;;19.60;55.30;;;;;;5017686;28;19917;-72
2022/09/21 04:26:31;;;;;;;;;;;19.60;55.20;;;;;;4991442;28;19921;-73
2022/09/21 04:28:57;;;;;;;;;;;19.60;55.20;;;;;;5002307;28;19925;-72
2022/09/21 04:31:22;;;;;;;;;;;19.60;55.20;;;;;;4999944;28;19922;-73
2022/09/21 04:33:48;;;;;;;;;;;19.60;55.20;;;;;;5015049;28;20423;-72
2022/09/21 04:36:14;;;;;;;;;;;19.60;55.00;;;;;;5007902;28;19921;-72
2022/09/21 04:38:39;;;;;;;;;;;19.60;54.90;;;;;;5016157;28;19921;-72
2022/09/21 04:41:05;;;;;;;;;;;19.60;55.10;;;;;;5016565;28;19921;-72
2022/09/21 04:43:31;;;;;;;;;;;19.60;55.10;;;;;;5003879;28;19918;-72
2022/09/21 04:45:56;;;;;;;;;;;19.60;55.00;;;;;;5018442;28;20231;-72
2022/09/21 04:48:22;;;;;;;;;;;19.60;55.10;;;;;;4987662;28;19913;-71
2022/09/21 04:50:48;;;;;;;;;;;19.60;55.10;;;;;;5018837;28;19921;-73
2022/09/21 04:53:13;;;;;;;;;;;19.50;55.00;;;;;;5019534;28;19960;-72
2022/09/21 04:55:39;;;;;;;;;;;19.50;55.00;;;;;;5021082;28;19917;-72
2022/09/21 04:58:04;;;;;;;;;;;19.50;55.00;;;;;;5012055;28;20265;-72
2022/09/21 05:00:30;;;;;;;;;;;19.50;55.10;;;;;;5018424;28;20335;-72
2022/09/21 05:02:56;;;;;;;;;;;19.50;55.10;;;;;;5018599;28;20296;-72
2022/09/21 05:05:21;;;;;;;;;;;19.50;55.00;;;;;;5012981;28;20378;-72
2022/09/21 05:07:47;;;;;;;;;;;19.50;54.90;;;;;;5006614;28;20368;-72
2022/09/21 05:10:12;;;;;;;;;;;19.50;54.90;;;;;;4999854;28;20037;-72
2022/09/21 05:12:37;;;;;;;;;;;19.50;55.00;;;;;;5001916;28;19972;-72
2022/09/21 05:15:03;;;;;;;;;;;19.50;55.00;;;;;;5004236;28;20428;-71
2022/09/21 05:17:28;;;;;;;;;;;19.50;55.00;;;;;;4998837;28;20377;-72
2022/09/21 05:19:54;;;;;;;;;;;19.50;54.90;;;;;;4998415;28;19996;-72
2022/09/21 05:22:19;;;;;;;;;;;19.50;54.80;;;;;;5005650;28;19957;-71
2022/09/21 05:24:45;;;;;;;;;;;19.50;54.90;;;;;;5016964;28;19917;-71
2022/09/21 05:27:11;;;;;;;;;;;19.50;54.90;;;;;;4997129;28;19914;-73
2022/09/21 05:29:37;;;;;;;;;;;19.50;54.90;;;;;;4993018;28;19914;-71
2022/09/21 05:32:15;;;;;;;;;;;19.50;54.70;;;;;;4983125;28;20392;-72
2022/09/21 05:34:49;;;;;;;;;;;19.60;54.70;;;;;;5006274;28;19921;-72
2022/09/21 05:37:22;;;;;;;;;;;19.60;54.70;;;;;;5008668;28;20000;-72
2022/09/21 05:39:48;;;;;;;;;;;19.50;54.60;;;;;;5007679;28;19916;-71
2022/09/21 05:42:13;;;;;;;;;;;19.50;54.70;;;;;;4989971;28;19921;-73
2022/09/21 05:44:39;;;;;;;;;;;19.50;54.60;;;;;;4996330;28;19923;-73
2022/09/21 05:47:22;;;;;;;;;;;19.50;54.80;;;;;;4997422;28;19914;-72
2022/09/21 05:49:47;;;;;;;;;;;19.40;54.90;;;;;;5003408;28;19914;-72
2022/09/21 05:52:20;;;;;;;;;;;19.50;55.00;;;;;;4994642;28;20278;-72
2022/09/21 05:54:45;;;;;;;;;;;19.50;54.70;;;;;;4999918;28;19920;-72
2022/09/21 05:57:17;;;;;;;;;;;19.50;54.60;;;;;;4999833;28;19913;-73
2022/09/21 05:59:51;;;;;;;;;;;19.50;54.60;;;;;;5000351;28;20012;-72
2022/09/21 06:02:18;;;;;;;;;;;19.50;54.60;;;;;;5000456;28;19953;-73
2022/09/21 06:04:43;;;;;;;;;;;19.50;54.70;;;;;;5007543;28;19925;-72
2022/09/21 06:07:09;;;;;;;;;;;19.50;54.90;;;;;;4997161;28;20405;-71
2022/09/21 06:09:34;;;;;;;;;;;19.50;54.90;;;;;;4996011;28;19929;-71
2022/09/21 06:12:00;;;;;;;;;;;19.50;55.00;;;;;;4996301;28;19926;-71
2022/09/21 06:14:26;;;;;;;;;;;19.50;55.00;;;;;;5014026;28;20460;-71
2022/09/21 06:16:52;;;;;;;;;;;19.40;55.00;;;;;;4994673;28;19918;-71
2022/09/21 06:19:17;;;;;;;;;;;19.40;55.10;;;;;;5012677;28;19923;-72
2022/09/21 06:21:43;;;;;;;;;;;19.40;55.10;;;;;;4981091;28;20363;-72
2022/09/21 06:24:08;;;;;;;;;;;19.40;55.10;;;;;;5008416;28;19920;-72
2022/09/21 06:26:34;;;;;;;;;;;19.40;55.10;;;;;;5004270;28;20370;-73
2022/09/21 06:28:59;;;;;;;;;;;19.40;55.10;;;;;;4994795;28;19921;-73
2022/09/21 06:31:25;;;;;;;;;;;19.40;55.20;;;;;;5000509;28;19920;-71
2022/09/21 06:33:50;;;;;;;;;;;19.30;55.20;;;;;;4987232;28;19993;-72
2022/09/21 06:36:16;;;;;;;;;;;19.30;55.20;;;;;;4998400;28;20016;-72
2022/09/21 06:38:42;;;;;;;;;;;19.40;55.30;;;;;;4997913;28;19922;-73
2022/09/21 06:41:07;;;;;;;;;;;19.30;55.20;;;;;;5012908;28;19913;-72
2022/09/21 06:43:33;;;;;;;;;;;19.30;55.20;;;;;;4995692;28;19924;-72
2022/09/21 06:45:59;;;;;;;;;;;19.40;55.20;;;;;;4993164;28;19917;-72
2022/09/21 06:48:25;;;;;;;;;;;19.40;55.20;;;;;;5006107;28;19957;-72
2022/09/21 06:50:55;;;;;;;;;;;19.40;55.10;;;;;;4988292;28;19938;-72
2022/09/21 06:53:21;;;;;;;;;;;19.40;55.20;;;;;;4987371;28;20326;-72
2022/09/21 06:55:46;;;;;;;;;;;19.40;55.20;;;;;;5006185;28;19921;-71
2022/09/21 06:58:12;;;;;;;;;;;19.30;55.20;;;;;;4991231;28;19921;-72
2022/09/21 07:00:37;;;;;;;;;;;19.30;55.20;;;;;;4987939;28;19945;-71
2022/09/21 07:03:03;;;;;;;;;;;19.30;55.20;;;;;;4974824;28;19921;-72
2022/09/21 07:05:28;;;;;;;;;;;19.30;55.40;;;;;;4997716;28;19918;-72
2022/09/21 07:07:57;;;;;;;;;;;19.40;55.40;;;;;;4989992;28;20000;-71
2022/09/21 07:10:23;;;;;;;;;;;19.40;55.40;;;;;;4991528;28;20013;-73
2022/09/21 07:12:50;;;;;;;;;;;19.50;55.10;;;;;;4991047;28;20020;-72
2022/09/21 07:15:15;;;;;;;;;;;19.80;54.90;;;;;;4991158;28;19922;-71
2022/09/21 07:17:43;;;;;;;;;;;19.90;54.90;;;;;;4989390;28;19914;-72
2022/09/21 07:20:08;;;;;;;;;;;20.00;54.70;;;;;;5006447;28;19913;-73
2022/09/21 07:22:34;;;;;;;;;;;20.20;54.40;;;;;;4991489;28;19921;-72
2022/09/21 07:25:00;;;;;;;;;;;20.40;54.20;;;;;;5011457;28;20370;-72
2022/09/21 07:27:26;;;;;;;;;;;20.60;53.70;;;;;;4987992;28;19914;-72
2022/09/21 07:29:52;;;;;;;;;;;20.70;53.30;;;;;;4980996;28;19949;-72
2022/09/21 07:32:17;;;;;;;;;;;20.80;53.10;;;;;;4983630;28;20380;-72
2022/09/21 07:34:43;;;;;;;;;;;20.80;53.10;;;;;;4988682;28;19918;-72
2022/09/21 07:37:08;;;;;;;;;;;20.80;53.70;;;;;;4990349;28;19932;-72
2022/09/21 07:39:34;;;;;;;;;;;20.90;53.10;;;;;;5005937;28;20362;-72
2022/09/21 07:42:01;;;;;;;;;;;21.00;52.80;;;;;;4993960;28;19926;-72
2022/09/21 07:44:27;;;;;;;;;;;21.10;52.60;;;;;;5007902;28;19965;-71
2022/09/21 07:46:52;;;;;;;;;;;21.10;52.50;;;;;;4994111;28;19949;-72
2022/09/21 07:49:18;;;;;;;;;;;21.10;52.60;;;;;;4995206;28;19921;-72
2022/09/21 07:51:43;;;;;;;;;;;21.20;52.50;;;;;;5006177;28;19989;-72
2022/09/21 07:54:09;;;;;;;;;;;21.30;52.30;;;;;;4990887;28;19918;-71
2022/09/21 07:56:38;;;;;;;;;;;21.50;52.10;;;;;;4998239;28;20012;-72
2022/09/21 07:59:06;;;;;;;;;;;21.60;51.90;;;;;;4992117;28;19918;-72
2022/09/21 08:01:32;;;;;;;;;;;21.70;51.60;;;;;;4993487;28;19917;-72
2022/09/21 08:03:57;;;;;;;;;;;21.80;51.30;;;;;;5001365;28;20420;-72
2022/09/21 08:06:23;;;;;;;;;;;21.90;51.30;;;;;;5014429;28;19917;-72
2022/09/21 08:08:49;;;;;;;;;;;22.10;51.20;;;;;;5013530;28;19921;-73
2022/09/21 08:11:15;;;;;;;;;;;22.20;51.70;;;;;;5009496;28;19925;-73
2022/09/21 08:13:41;;;;;;;;;;;22.20;50.60;;;;;;5011878;28;19917;-73
2022/09/21 08:16:06;;;;;;;;;;;22.30;50.70;;;;;;4995713;28;19914;-72
2022/09/21 08:18:34;;;;;;;;;;;22.30;50.60;;;;;;4995970;28;19960;-72
2022/09/21 08:21:00;;;;;;;;;;;22.30;50.60;;;;;;5014840;28;19914;-73
2022/09/21 08:23:27;;;;;;;;;;;22.40;50.60;;;;;;5017319;28;19924;-73
2022/09/21 08:26:00;;;;;;;;;;;22.40;50.40;;;;;;4997819;28;19941;-73
2022/09/21 08:28:26;;;;;;;;;;;22.40;50.40;;;;;;4995076;28;19943;-72
2022/09/21 08:30:51;;;;;;;;;;;22.30;50.50;;;;;;5013988;28;19921;-72
2022/09/21 08:33:17;;;;;;;;;;;22.20;50.70;;;;;;5010417;28;20259;-73
2022/09/21 08:35:42;;;;;;;;;;;22.20;50.80;;;;;;5010082;28;19940;-71
2022/09/21 08:38:08;;;;;;;;;;;22.20;50.80;;;;;;5008990;28;19913;-72
2022/09/21 08:40:34;;;;;;;;;;;22.20;50.80;;;;;;5013900;28;19968;-72
2022/09/21 08:43:06;;;;;;;;;;;22.20;50.90;;;;;;5007066;28;19913;-73
2022/09/21 08:45:36;;;;;;;;;;;22.20;51.00;;;;;;4997915;28;19921;-73
2022/09/21 08:48:03;;;;;;;;;;;22.20;50.90;;;;;;4988221;28;19917;-73
2022/09/21 08:50:36;;;;;;;;;;;22.20;50.90;;;;;;5008720;28;19948;-73
2022/09/21 08:53:12;;;;;;;;;;;22.20;50.90;;;;;;4996592;28;19917;-72
2022/09/21 08:55:38;;;;;;;;;;;22.20;51.10;;;;;;4996188;28;20431;-73
2022/09/21 08:58:04;;;;;;;;;;;22.20;51.10;;;;;;5011107;28;19968;-72
2022/09/21 09:00:34;;;;;;;;;;;22.30;51.10;;;;;;5013996;28;19969;-72
2022/09/21 09:03:14;;;;;;;;;;;22.30;51.00;;;;;;5007998;28;20373;-72
2022/09/21 09:05:47;;;;;;;;;;;22.40;51.00;;;;;;5006308;28;19972;-72
2022/09/21 09:08:26;;;;;;;;;;;22.50;50.80;;;;;;5013691;28;19921;-71
2022/09/21 09:11:02;;;;;;;;;;;22.60;50.60;;;;;;5012373;28;19944;-73
2022/09/21 09:13:47;;;;;;;;;;;22.60;50.40;;;;;;5008153;28;19920;-72
2022/09/21 09:16:22;;;;;;;;;;;22.50;50.40;;;;;;4992431;28;19913;-73
2022/09/21 09:18:48;;;;;;;;;;;22.40;50.60;;;;;;5013548;28;19914;-73
2022/09/21 09:21:20;;;;;;;;;;;22.40;50.90;;;;;;5011479;28;20570;-72
2022/09/21 09:23:47;;;;;;;;;;;22.40;50.90;;;;;;5011664;28;19921;-72
2022/09/21 09:26:17;;;;;;;;;;;22.40;50.90;;;;;;5012313;28;20396;-72
2022/09/21 09:29:12;;;;;;;;;;;22.40;50.90;;;;;;5011792;28;20363;-71
2022/09/21 09:31:38;;;;;;;;;;;22.40;51.00;;;;;;5002462;28;20297;-72
2022/09/21 09:34:17;;;;;;;;;;;22.50;51.10;;;;;;5014771;28;19918;-73
2022/09/21 09:36:43;;;;;;;;;;;22.50;51.00;;;;;;5011054;28;20401;-72
2022/09/21 09:39:09;;;;;;;;;;;22.50;50.90;;;;;;4995694;28;19991;-72
2022/09/21 09:41:38;;;;;;;;;;;22.50;51.50;;;;;;5014072;28;19913;-72
2022/09/21 09:44:16;;;;;;;;;;;22.50;51.00;;;;;;5013579;28;19921;-72
2022/09/21 09:46:43;;;;;;;;;;;22.50;51.00;;;;;;5006048;28;20301;-72
2022/09/21 09:49:11;;;;;;;;;;;22.60;50.90;;;;;;5011653;28;19984;-72
2022/09/21 09:51:38;;;;;;;;;;;22.70;51.00;;;;;;5009973;28;20500;-73
2022/09/21 09:54:05;;;;;;;;;;;22.60;51.00;;;;;;5004895;28;20456;-73
2022/09/21 09:56:30;;;;;;;;;;;22.60;51.10;;;;;;5010244;28;19917;-73
2022/09/21 09:58:56;;;;;;;;;;;22.60;51.20;;;;;;5015232;28;20296;-71
2022/09/21 10:01:41;;;;;;;;;;;22.60;51.10;;;;;;4995065;28;19913;-72
2022/09/21 10:04:10;;;;;;;;;;;22.70;51.10;;;;;;5009334;28;20381;-73
2022/09/21 10:06:36;;;;;;;;;;;22.70;51.00;;;;;;5003198;28;20341;-72
2022/09/21 10:09:11;;;;;;;;;;;22.90;51.00;;;;;;5012764;28;20015;-72
2022/09/21 10:11:37;;;;;;;;;;;22.90;50.80;;;;;;5007017;28;19944;-72
2022/09/21 10:14:06;;;;;;;;;;;23.00;50.70;;;;;;5010416;28;19913;-72
2022/09/21 10:16:32;;;;;;;;;;;23.00;50.60;;;;;;5008331;28;20274;-73
2022/09/21 10:19:00;;;;;;;;;;;23.00;50.60;;;;;;5011429;28;19920;-73
2022/09/21 10:21:26;;;;;;;;;;;23.00;50.80;;;;;;5010359;28;20004;-73
2022/09/21 10:24:00;;;;;;;;;;;22.80;50.90;;;;;;5011241;28;19914;-72
2022/09/21 10:26:33;;;;;;;;;;;22.80;51.10;;;;;;5010355;28;19914;-73
2022/09/21 10:28:59;;;;;;;;;;;22.80;51.20;;;;;;5008001;28;19929;-72
2022/09/21 10:31:25;;;;;;;;;;;22.80;51.20;;;;;;5012492;28;20032;-73
2022/09/21 10:33:54;;;;;;;;;;;22.90;51.10;;;;;;5011291;28;20355;-73
2022/09/21 10:36:27;;;;;;;;;;;23.00;50.90;;;;;;5007630;28;20016;-72
2022/09/21 10:38:52;;;;;;;;;;;23.10;50.80;;;;;;5006119;28;20020;-73
2022/09/21 10:41:18;;;;;;;;;;;23.10;50.80;;;;;;4990824;28;20025;-73
2022/09/21 10:43:43;;;;;;;;;;;23.10;50.90;;;;;;4997592;28;19918;-73
2022/09/21 10:46:08;;;;;;;;;;;23.00;50.90;;;;;;5020713;28;19920;-73
2022/09/21 10:48:34;;;;;;;;;;;23.00;51.00;;;;;;5010482;28;19967;-73
2022/09/21 10:50:59;;;;;;;;;;;23.00;51.00;;;;;;5011371;28;20000;-73
2022/09/21 10:53:35;;;;;;;;;;;23.10;51.00;;;;;;4996458;28;19917;-73
2022/09/21 10:56:00;;;;;;;;;;;23.20;50.90;;;;;;5009889;28;19914;-72
2022/09/21 10:58:26;;;;;;;;;;;23.30;50.80;;;;;;5007468;28;19929;-72
2022/09/21 11:00:51;;;;;;;;;;;23.40;50.50;;;;;;5008113;28;19924;-72
2022/09/21 11:03:25;;;;;;;;;;;23.50;50.40;;;;;;5011163;28;20388;-72
2022/09/21 11:05:50;;;;;;;;;;;23.50;50.40;;;;;;4993257;28;19928;-73
2022/09/21 11:08:39;;;;;;;;;;;23.60;50.50;;;;;;4992150;28;20293;-73
2022/09/21 11:11:20;;;;;;;;;;;23.60;50.60;;;;;;4997937;28;19987;-72
2022/09/21 11:13:53;;;;;;;;;;;23.70;50.60;;;;;;5010724;28;19921;-72
2022/09/21 11:16:20;;;;;;;;;;;23.80;50.50;;;;;;5012853;28;19910;-73
2022/09/21 11:19:10;;;;;;;;;;;23.80;50.30;;;;;;5014455;28;19917;-72
2022/09/21 11:21:40;;;;;;;;;;;23.80;50.30;;;;;;5011119;28;20388;-73
2022/09/21 11:24:11;;;;;;;;;;;23.90;50.30;;;;;;5003653;28;19921;-72
2022/09/21 11:26:39;;;;;;;;;;;23.90;50.30;;;;;;5008304;28;19961;-72
2022/09/21 11:29:14;;;;;;;;;;;23.90;50.40;;;;;;5012578;28;19909;-72
2022/09/21 11:31:57;;;;;;;;;;;24.00;50.40;;;;;;5013400;28;19917;-72
2022/09/21 11:34:24;;;;;;;;;;;24.00;50.40;;;;;;5008075;28;20311;-72
2022/09/21 11:37:09;;;;;;;;;;;24.00;50.40;;;;;;5009548;28;19952;-73
2022/09/21 11:39:50;;;;;;;;;;;24.00;50.30;;;;;;5015375;28;19914;-72
2022/09/21 11:42:21;;;;;;;;;;;24.00;50.30;;;;;;5011142;28;20451;-72
2022/09/21 11:44:54;;;;;;;;;;;24.10;50.50;;;;;;5010975;28;19913;-72
2022/09/21 11:47:36;;;;;;;;;;;24.10;50.40;;;;;;5011010;28;19941;-72
2022/09/21 11:50:04;;;;;;;;;;;24.10;51.00;;;;;;5009400;28;19918;-73
2022/09/21 11:52:56;;;;;;;;;;;24.10;50.40;;;;;;5014115;28;20024;-72
2022/09/21 11:55:27;;;;;;;;;;;24.20;50.50;;;;;;4984752;28;19917;-72
2022/09/21 11:57:56;;;;;;;;;;;24.20;50.50;;;;;;5015736;28;19917;-72
2022/09/21 12:00:21;;;;;;;;;;;24.20;50.50;;;;;;5008353;28;20024;-73
2022/09/21 12:03:06;;;;;;;;;;;24.20;50.60;;;;;;5013075;28;20381;-73
2022/09/21 12:05:34;;;;;;;;;;;24.20;50.50;;;;;;4975239;28;19928;-72
2022/09/21 12:08:05;;;;;;;;;;;24.20;50.50;;;;;;4976173;28;19914;-73
2022/09/21 12:10:37;;;;;;;;;;;24.30;50.50;;;;;;4975598;28;19918;-72
2022/09/21 12:13:13;;;;;;;;;;;24.30;50.50;;;;;;4990801;28;20053;-72
2022/09/21 12:15:42;;;;;;;;;;;24.30;50.40;;;;;;4985172;28;19918;-73
2022/09/21 12:18:07;;;;;;;;;;;24.30;50.40;;;;;;4988473;28;19915;-72
2022/09/21 12:20:47;;;;;;;;;;;24.30;50.60;;;;;;4975149;28;19914;-73
2022/09/21 12:23:30;;;;;;;;;;;24.20;50.70;;;;;;4971611;28;19981;-72
2022/09/21 12:25:56;;;;;;;;;;;24.20;50.80;;;;;;4964261;28;19918;-72
2022/09/21 12:28:25;;;;;;;;;;;24.20;50.80;;;;;;4974432;28;19914;-72
2022/09/21 12:30:54;;;;;;;;;;;24.30;50.80;;;;;;4971119;28;19922;-72
2022/09/21 12:33:21;;;;;;;;;;;24.30;50.60;;;;;;4983976;28;19922;-73
2022/09/21 12:35:48;;;;;;;;;;;24.40;50.60;;;;;;4989160;28;19914;-72
2022/09/21 12:38:16;;;;;;;;;;;24.50;50.60;;;;;;4989296;28;20357;-72
2022/09/21 12:40:46;;;;;;;;;;;24.50;50.50;;;;;;4975126;28;20043;-73
2022/09/21 12:43:30;;;;;;;;;;;24.50;50.50;;;;;;4989912;28;19922;-71
2022/09/21 12:45:56;;;;;;;;;;;24.50;50.50;;;;;;4974283;28;20005;-72
2022/09/21 12:48:32;;;;;;;;;;;24.60;50.60;;;;;;4985045;28;19915;-73
2022/09/21 12:51:19;;;;;;;;;;;24.60;50.50;;;;;;4989448;28;19914;-73
2022/09/21 12:53:46;;;;;;;;;;;24.70;50.50;;;;;;4968410;28;19957;-72
2022/09/21 12:56:17;;;;;;;;;;;24.70;50.50;;;;;;4974640;28;19914;-73
2022/09/21 12:58:47;;;;;;;;;;;24.70;50.30;;;;;;4993959;28;20434;-73
2022/09/21 13:01:39;;;;;;;;;;;24.70;50.20;;;;;;4970766;28;19929;-74
2022/09/21 13:04:07;;;;;;;;;;;24.80;50.30;;;;;;4984386;28;19921;-73
2022/09/21 13:06:42;;;;;;;;;;;24.80;50.30;;;;;;5011925;28;19917;-74
2022/09/21 13:09:09;;;;;;;;;;;24.80;50.40;;;;;;4995727;28;19967;-74
2022/09/21 13:11:34;;;;;;;;;;;24.70;50.50;;;;;;5018361;28;19937;-73
2022/09/21 13:14:01;;;;;;;;;;;24.70;50.50;;;;;;5009859;28;19972;-73
2022/09/21 13:16:34;;;;;;;;;;;24.70;50.50;;;;;;5009963;28;19917;-74
2022/09/21 13:19:11;;;;;;;;;;;24.80;50.60;;;;;;5009319;28;19922;-74
2022/09/21 13:21:37;;;;;;;;;;;24.90;50.60;;;;;;5009804;28;20352;-74
2022/09/21 13:24:03;;;;;;;;;;;24.80;50.50;;;;;;5011738;28;20004;-74
2022/09/21 13:26:50;;;;;;;;;;;24.90;50.60;;;;;;4991765;28;19917;-74
2022/09/21 13:29:15;;;;;;;;;;;24.90;50.50;;;;;;5010254;28;19940;-74
2022/09/21 13:31:42;;;;;;;;;;;24.90;50.50;;;;;;5011113;28;19922;-73
2022/09/21 13:34:23;;;;;;;;;;;25.00;50.60;;;;;;5012830;28;19917;-73
2022/09/21 13:37:15;;;;;;;;;;;25.00;50.60;;;;;;5007941;28;20356;-74
2022/09/21 13:39:47;;;;;;;;;;;25.00;50.70;;;;;;5000593;28;20043;-74
2022/09/21 13:42:28;;;;;;;;;;;25.10;50.70;;;;;;5010377;28;19909;-71
2022/09/21 13:44:53;;;;;;;;;;;25.10;50.70;;;;;;5009959;28;19920;-73
2022/09/21 13:47:32;;;;;;;;;;;25.10;50.70;;;;;;5009314;28;19913;-72
2022/09/21 13:49:57;;;;;;;;;;;25.10;50.90;;;;;;5009037;28;19925;-72
2022/09/21 13:52:51;;;;;;;;;;;25.00;50.80;;;;;;5013113;28;20282;-72
2022/09/21 13:55:26;;;;;;;;;;;25.00;50.80;;;;;;5003345;28;19918;-72
2022/09/21 13:57:54;;;;;;;;;;;25.00;50.90;;;;;;5011280;28;20016;-72
2022/09/21 14:00:26;;;;;;;;;;;25.00;51.00;;;;;;5011567;28;20293;-73
2022/09/21 14:02:54;;;;;;;;;;;25.00;51.20;;;;;;5011118;28;20000;-73
2022/09/21 14:05:34;;;;;;;;;;;24.90;51.20;;;;;;5011011;28;19921;-72
2022/09/21 14:08:00;;;;;;;;;;;24.90;51.30;;;;;;5011722;28;19921;-73
2022/09/21 14:10:26;;;;;;;;;;;24.90;51.30;;;;;;5015129;28;19976;-72
2022/09/21 14:12:51;;;;;;;;;;;25.00;51.20;;;;;;5004671;28;20813;-72
2022/09/21 14:15:18;;;;;;;;;;;25.00;51.10;;;;;;5011216;28;20004;-73
2022/09/21 14:17:44;;;;;;;;;;;25.10;51.00;;;;;;5008706;28;19924;-73
2022/09/21 14:20:29;;;;;;;;;;;25.10;50.90;;;;;;5010353;28;19952;-74
2022/09/21 14:23:09;;;;;;;;;;;25.20;50.90;;;;;;5002930;28;19924;-74
2022/09/21 14:25:47;;;;;;;;;;;25.20;50.90;;;;;;5009082;28;19979;-74
2022/09/21 14:28:13;;;;;;;;;;;25.20;50.90;;;;;;5012638;28;19960;-74